createdAt,value
2023-01-29T00:04:35.000Z,21.27
2023-01-29T00:07:02.512Z,23.23
2023-01-29T00:09:31.462Z,22.02
2023-01-29T00:11:59.277Z,22.20
2023-01-29T00:14:27.633Z,21.10
2023-01-29T00:16:55.188Z,22.20
2023-01-29T00:19:23.514Z,20.63
2023-01-29T00:21:51.343Z,22.05
2023-01-29T00:24:19.050Z,21.38
2023-01-29T00:26:47.265Z,21.63
2023-01-29T00:29:14.941Z,21.75
2023-01-29T00:31:45.297Z,22.85
2023-01-29T00:34:13.148Z,21.50
2023-01-29T00:36:40.806Z,22.85
2023-01-29T00:39:18.068Z,22.08
2023-01-29T00:42:04.905Z,21.48
2023-01-29T00:44:51.303Z,22.45
2023-01-29T00:47:33.538Z,21.38
2023-01-29T00:50:02.229Z,21.52
2023-01-29T00:52:30.093Z,21.50
2023-01-29T00:54:58.347Z,21.48
2023-01-29T00:57:27.106Z,21.55
2023-01-29T00:59:54.988Z,21.02
2023-01-29T01:03:42.505Z,22.17
2023-01-29T01:06:11.106Z,22.00
2023-01-29T01:09:17.770Z,20.98
2023-01-29T01:11:45.558Z,22.25
2023-01-29T01:14:14.307Z,21.30
2023-01-29T01:16:43.551Z,21.95
2023-01-29T01:19:11.475Z,22.10
2023-01-29T01:21:39.165Z,21.58
2023-01-29T01:24:07.305Z,21.45
2023-01-29T01:26:35.322Z,22.40
2023-01-29T01:29:02.752Z,21.88
2023-01-29T01:31:30.527Z,22.27
2023-01-29T01:33:58.095Z,21.98
2023-01-29T01:36:26.663Z,23.70
2023-01-29T01:38:55.571Z,22.98
2023-01-29T01:41:24.140Z,22.05
2023-01-29T01:43:54.966Z,21.00
2023-01-29T01:46:23.398Z,22.92
2023-01-29T01:48:55.391Z,22.60
2023-01-29T01:51:27.426Z,21.95
2023-01-29T01:53:58.977Z,22.40
2023-01-29T01:56:28.940Z,22.75
2023-01-29T01:58:57.590Z,23.35
2023-01-29T02:01:29.648Z,21.67
2023-01-29T02:04:27.017Z,22.17
2023-01-29T02:07:14.205Z,22.10
2023-01-29T02:10:01.942Z,22.42
2023-01-29T02:12:31.473Z,21.70
2023-01-29T02:14:59.239Z,22.60
2023-01-29T02:17:26.981Z,22.42
2023-01-29T02:20:20.116Z,21.90
2023-01-29T02:22:47.889Z,22.27
2023-01-29T02:25:16.345Z,22.20
2023-01-29T02:27:50.319Z,22.83
2023-01-29T02:30:24.920Z,22.58
2023-01-29T02:32:58.717Z,21.85
2023-01-29T02:35:30.198Z,22.00
2023-01-29T02:38:13.417Z,22.83
2023-01-29T02:40:44.547Z,21.48
2023-01-29T02:43:16.914Z,22.17
2023-01-29T02:45:47.880Z,21.63
2023-01-29T02:48:18.826Z,22.23
2023-01-29T02:50:58.085Z,20.77
2023-01-29T02:53:25.457Z,20.63
2023-01-29T02:55:56.821Z,20.90
2023-01-29T02:58:36.305Z,21.85
2023-01-29T03:01:12.668Z,21.58
2023-01-29T03:03:52.572Z,22.33
2023-01-29T03:06:29.124Z,21.30
2023-01-29T03:09:02.300Z,20.98
2023-01-29T03:11:33.730Z,21.50
2023-01-29T03:14:07.379Z,21.02
2023-01-29T03:16:45.761Z,22.17
2023-01-29T03:19:18.988Z,22.23
2023-01-29T03:22:00.903Z,21.33
2023-01-29T03:25:15.919Z,22.20
2023-01-29T03:28:22.327Z,21.38
2023-01-29T03:31:11.925Z,21.80
2023-01-29T03:34:01.909Z,21.13
2023-01-29T03:36:38.402Z,22.13
2023-01-29T03:39:07.227Z,21.20
2023-01-29T03:41:47.780Z,22.25
2023-01-29T03:44:31.134Z,23.05
2023-01-29T03:47:09.779Z,21.90
2023-01-29T03:49:52.030Z,21.98
2023-01-29T03:52:20.171Z,20.95
2023-01-29T03:54:55.485Z,21.55
2023-01-29T03:57:26.681Z,21.80
2023-01-29T03:59:58.139Z,22.60
2023-01-29T04:03:00.368Z,21.48
2023-01-29T04:05:31.522Z,22.23
2023-01-29T04:08:16.540Z,21.63
2023-01-29T04:10:46.024Z,22.10
2023-01-29T04:13:14.543Z,23.95
2023-01-29T04:18:11.715Z,21.38
2023-01-29T04:21:00.810Z,22.50
2023-01-29T04:23:30.035Z,22.33
2023-01-29T04:26:23.046Z,21.42
2023-01-29T04:28:58.061Z,22.08
2023-01-29T04:31:29.319Z,22.08
2023-01-29T04:34:15.808Z,22.15
2023-01-29T04:36:57.206Z,22.38
2023-01-29T04:39:50.345Z,22.02
2023-01-29T04:42:36.577Z,21.95
2023-01-29T04:45:22.817Z,23.20
2023-01-29T04:47:53.863Z,21.80
2023-01-29T04:50:39.074Z,22.50
2023-01-29T04:53:16.300Z,22.40
2023-01-29T04:55:51.821Z,22.55
2023-01-29T04:58:26.872Z,23.17
2023-01-29T05:00:55.154Z,23.15
2023-01-29T05:03:25.718Z,24.60
2023-01-29T05:05:58.307Z,23.83
2023-01-29T05:08:26.457Z,24.00
2023-01-29T05:10:54.826Z,23.80
2023-01-29T05:13:23.492Z,23.35
2023-01-29T05:16:05.802Z,23.23
2023-01-29T05:18:33.701Z,24.60
2023-01-29T05:21:04.350Z,24.15
2023-01-29T05:23:31.846Z,25.08
2023-01-29T05:25:59.643Z,23.52
2023-01-29T05:28:30.808Z,25.10
2023-01-29T05:30:58.600Z,24.10
2023-01-29T05:33:26.297Z,23.63
2023-01-29T05:35:54.167Z,24.23
2023-01-29T05:38:23.667Z,24.15
2023-01-29T05:40:52.752Z,24.43
2023-01-29T05:43:22.149Z,23.55
2023-01-29T05:46:00.839Z,24.52
2023-01-29T05:48:29.154Z,24.23
2023-01-29T05:51:04.043Z,24.65
2023-01-29T05:53:32.518Z,24.80
2023-01-29T05:56:01.801Z,25.05
2023-01-29T05:58:31.290Z,23.58
2023-01-29T06:00:58.866Z,23.23
2023-01-29T06:03:26.506Z,22.75
2023-01-29T06:05:54.447Z,25.35
2023-01-29T06:08:25.164Z,25.30
2023-01-29T06:10:52.898Z,24.33
2023-01-29T06:13:24.631Z,24.92
2023-01-29T06:15:52.734Z,25.33
2023-01-29T06:18:21.412Z,23.77
2023-01-29T06:20:48.955Z,23.92
2023-01-29T06:23:18.175Z,23.05
2023-01-29T06:25:45.605Z,24.92
2023-01-29T06:28:13.954Z,24.75
2023-01-29T06:30:41.803Z,25.80
2023-01-29T06:33:09.508Z,25.35
2023-01-29T06:35:37.255Z,24.17
2023-01-29T06:38:04.956Z,26.77
2023-01-29T06:40:32.563Z,25.77
2023-01-29T06:43:06.095Z,26.17
2023-01-29T06:45:33.648Z,25.25
2023-01-29T06:48:01.863Z,27.13
2023-01-29T06:50:30.045Z,26.65
2023-01-29T06:52:57.737Z,27.58
2023-01-29T06:55:26.327Z,27.30
2023-01-29T06:57:53.847Z,26.35
2023-01-29T07:00:22.644Z,28.27
2023-01-29T07:02:51.366Z,29.80
2023-01-29T07:05:19.016Z,26.48
2023-01-29T07:07:47.630Z,27.60
2023-01-29T07:10:15.471Z,28.58
2023-01-29T07:12:43.283Z,30.20
2023-01-29T07:15:12.686Z,27.27
2023-01-29T07:17:40.602Z,27.27
2023-01-29T07:20:08.747Z,30.05
2023-01-29T07:22:36.640Z,28.58
2023-01-29T07:25:04.464Z,27.23
2023-01-29T07:27:31.965Z,28.67
2023-01-29T07:29:59.567Z,28.48
2023-01-29T07:32:29.238Z,28.67
2023-01-29T07:34:56.871Z,28.50
2023-01-29T07:37:24.463Z,28.23
2023-01-29T07:39:52.772Z,30.38
2023-01-29T07:42:21.767Z,29.70
2023-01-29T07:44:51.518Z,30.55
2023-01-29T07:47:19.002Z,29.92
2023-01-29T07:49:46.467Z,27.58
2023-01-29T07:52:17.027Z,28.73
2023-01-29T07:54:45.479Z,28.45
2023-01-29T07:57:13.290Z,28.35
2023-01-29T07:59:40.932Z,28.45
2023-01-29T08:02:10.249Z,29.55
2023-01-29T08:04:37.963Z,28.80
2023-01-29T08:07:06.153Z,28.85
2023-01-29T08:09:33.869Z,29.30
2023-01-29T08:12:01.217Z,30.65
2023-01-29T08:14:30.358Z,29.85
2023-01-29T08:16:58.139Z,28.88
2023-01-29T08:19:25.893Z,28.00
2023-01-29T08:21:53.732Z,27.60
2023-01-29T08:24:31.300Z,29.85
2023-01-29T08:27:09.441Z,28.77
2023-01-29T08:29:37.169Z,29.20
2023-01-29T08:32:04.972Z,28.88
2023-01-29T08:34:32.760Z,30.50
2023-01-29T08:37:00.182Z,28.55
2023-01-29T08:39:27.676Z,28.30
2023-01-29T08:41:55.484Z,28.85
2023-01-29T08:44:23.280Z,29.65
2023-01-29T08:46:54.624Z,29.90
2023-01-29T08:49:23.543Z,27.83
2023-01-29T08:51:54.805Z,29.38
2023-01-29T08:54:22.956Z,28.67
2023-01-29T08:56:51.530Z,28.58
2023-01-29T08:59:23.508Z,28.50
2023-01-29T09:01:51.561Z,28.38
2023-01-29T09:04:19.140Z,27.08
2023-01-29T09:06:48.581Z,28.27
2023-01-29T09:09:16.271Z,28.38
2023-01-29T09:11:44.717Z,26.63
2023-01-29T09:14:14.557Z,27.58
2023-01-29T09:16:45.058Z,29.15
2023-01-29T09:19:12.935Z,27.85
2023-01-29T09:21:40.327Z,27.13
2023-01-29T09:24:07.899Z,26.70
2023-01-29T09:26:35.563Z,27.70
2023-01-29T09:29:03.469Z,27.95
2023-01-29T09:31:31.232Z,27.92
2023-01-29T09:33:58.860Z,27.27
2023-01-29T09:36:26.426Z,28.33
2023-01-29T09:38:53.921Z,28.10
2023-01-29T09:41:49.014Z,28.23
2023-01-29T09:44:18.365Z,27.55
2023-01-29T09:46:52.371Z,27.38
2023-01-29T09:49:36.181Z,26.95
2023-01-29T09:52:06.635Z,27.70
2023-01-29T09:57:01.633Z,27.27
2023-01-29T09:59:31.289Z,25.10
2023-01-29T10:02:07.717Z,27.10
2023-01-29T10:04:36.000Z,26.98
2023-01-29T10:07:09.657Z,25.30
2023-01-29T10:10:02.153Z,26.17
2023-01-29T10:12:32.809Z,26.33
2023-01-29T10:15:24.572Z,26.67
2023-01-29T10:18:01.354Z,26.67
2023-01-29T10:20:41.166Z,25.30
2023-01-29T10:23:25.241Z,26.33
2023-01-29T10:25:54.599Z,26.13
2023-01-29T10:28:46.852Z,25.92
2023-01-29T10:31:18.809Z,24.92
2023-01-29T10:34:01.603Z,25.70
2023-01-29T10:36:35.164Z,26.00
2023-01-29T10:39:04.637Z,25.05
2023-01-29T10:41:54.070Z,26.40
2023-01-29T10:44:22.554Z,24.98
2023-01-29T10:47:02.751Z,24.13
2023-01-29T10:49:42.953Z,24.92
2023-01-29T10:52:17.853Z,24.95
2023-01-29T10:55:04.163Z,23.70
2023-01-29T10:57:37.997Z,22.45
2023-01-29T11:00:14.891Z,23.48
2023-01-29T11:02:46.611Z,23.15
2023-01-29T11:05:32.689Z,23.17
2023-01-29T11:08:09.121Z,23.25
2023-01-29T11:10:47.899Z,22.85
2023-01-29T11:13:17.095Z,21.38
2023-01-29T11:15:45.143Z,20.90
2023-01-29T11:18:15.416Z,22.45
2023-01-29T11:20:43.592Z,21.73
2023-01-29T11:23:28.700Z,21.38
2023-01-29T11:25:58.546Z,20.55
2023-01-29T11:28:41.435Z,20.90
2023-01-29T11:31:26.207Z,21.08
2023-01-29T11:33:55.172Z,21.15
2023-01-29T11:36:28.504Z,20.60
2023-01-29T11:39:22.607Z,21.92
2023-01-29T11:41:57.209Z,20.27
2023-01-29T11:44:33.236Z,19.67
2023-01-29T11:47:16.019Z,20.55
2023-01-29T11:49:51.585Z,20.45
2023-01-29T11:52:21.656Z,20.15
2023-01-29T11:55:00.965Z,21.35
2023-01-29T11:57:31.113Z,19.83
2023-01-29T12:00:22.377Z,21.30
2023-01-29T12:02:54.463Z,20.30
2023-01-29T12:05:27.769Z,20.50
2023-01-29T12:07:57.019Z,19.77
2023-01-29T12:10:43.332Z,21.02
2023-01-29T12:13:11.207Z,20.05
2023-01-29T12:15:39.547Z,19.35
2023-01-29T12:18:17.768Z,21.02
2023-01-29T12:20:57.314Z,21.35
2023-01-29T12:23:43.665Z,21.85
2023-01-29T12:26:16.270Z,20.88
2023-01-29T12:28:53.469Z,20.38
2023-01-29T12:31:29.798Z,22.60
2023-01-29T12:34:04.078Z,22.95
2023-01-29T12:36:41.404Z,21.45
2023-01-29T12:39:11.255Z,21.75
2023-01-29T12:41:46.167Z,21.23
2023-01-29T12:44:42.774Z,20.95
2023-01-29T12:47:30.425Z,21.35
2023-01-29T12:49:59.886Z,21.60
2023-01-29T12:52:46.502Z,22.53
2023-01-29T12:55:17.268Z,20.02
2023-01-29T12:57:45.027Z,21.92
2023-01-29T13:00:15.671Z,21.80
2023-01-29T13:02:52.889Z,22.20
2023-01-29T13:05:33.855Z,22.20
2023-01-29T13:08:08.513Z,21.40
2023-01-29T13:10:39.041Z,22.90
2023-01-29T13:13:16.775Z,21.92
2023-01-29T13:15:45.029Z,22.38
2023-01-29T13:18:15.738Z,24.13
2023-01-29T13:20:44.489Z,22.83
2023-01-29T13:23:22.807Z,23.23
2023-01-29T13:25:54.943Z,24.83
2023-01-29T13:28:27.615Z,23.45
2023-01-29T13:31:15.844Z,24.73
2023-01-29T13:33:44.199Z,25.58
2023-01-29T13:36:26.123Z,25.98
2023-01-29T13:39:02.510Z,25.00
2023-01-29T13:41:34.942Z,26.25
2023-01-29T13:44:02.901Z,25.05
2023-01-29T13:46:31.731Z,26.10
2023-01-29T13:49:04.953Z,25.60
2023-01-29T13:51:36.154Z,26.23
2023-01-29T13:54:09.438Z,26.88
2023-01-29T13:56:37.121Z,26.63
2023-01-29T13:59:07.899Z,26.27
2023-01-29T14:01:48.085Z,26.13
2023-01-29T14:04:28.421Z,27.25
2023-01-29T14:06:57.893Z,26.20
2023-01-29T14:09:33.416Z,26.45
2023-01-29T14:12:01.569Z,26.27
2023-01-29T14:14:47.839Z,26.52
2023-01-29T14:17:16.329Z,26.45
2023-01-29T14:19:47.971Z,27.42
2023-01-29T14:22:23.274Z,28.45
2023-01-29T14:24:55.922Z,28.33
2023-01-29T14:27:28.273Z,27.83
2023-01-29T14:30:00.553Z,27.67
2023-01-29T14:32:28.277Z,27.10
2023-01-29T14:34:59.325Z,28.05
2023-01-29T14:37:37.418Z,27.90
2023-01-29T14:40:20.367Z,27.95
2023-01-29T14:43:06.248Z,27.70
2023-01-29T14:45:44.784Z,27.20
2023-01-29T14:48:12.507Z,27.88
2023-01-29T14:50:42.442Z,29.10
2023-01-29T14:53:28.979Z,26.80
2023-01-29T14:56:02.627Z,27.30
2023-01-29T14:58:38.472Z,28.02
2023-01-29T15:01:13.232Z,28.17
2023-01-29T15:03:50.369Z,28.33
2023-01-29T15:06:33.188Z,27.75
2023-01-29T15:09:26.767Z,29.60
2023-01-29T15:11:56.423Z,28.25
2023-01-29T15:14:44.758Z,29.73
2023-01-29T15:17:17.435Z,29.40
2023-01-29T15:19:50.294Z,28.05
2023-01-29T15:22:21.930Z,28.77
2023-01-29T15:25:03.227Z,28.63
2023-01-29T15:27:31.627Z,29.75
2023-01-29T15:30:00.851Z,27.83
2023-01-29T15:32:32.124Z,28.25
2023-01-29T15:35:00.600Z,28.08
2023-01-29T15:37:29.611Z,27.70
2023-01-29T15:40:01.900Z,27.83
2023-01-29T15:42:30.337Z,27.77
2023-01-29T15:44:58.241Z,29.15
2023-01-29T15:47:29.356Z,28.30
2023-01-29T15:49:57.521Z,27.65
2023-01-29T15:52:28.002Z,28.02
2023-01-29T15:54:57.072Z,28.40
2023-01-29T15:57:32.880Z,27.17
2023-01-29T16:00:00.624Z,28.58
2023-01-29T16:02:33.811Z,27.58
2023-01-29T16:05:01.714Z,28.08
2023-01-29T16:07:34.878Z,27.10
2023-01-29T16:10:03.576Z,25.77
2023-01-29T16:12:33.718Z,26.63
2023-01-29T16:15:03.491Z,25.33
2023-01-29T16:17:41.528Z,25.40
2023-01-29T16:20:21.978Z,25.98
2023-01-29T16:22:52.507Z,26.48
2023-01-29T16:25:24.490Z,25.58
2023-01-29T16:27:53.024Z,25.45
2023-01-29T16:30:21.996Z,26.33
2023-01-29T16:32:51.950Z,25.55
2023-01-29T16:35:21.829Z,26.13
2023-01-29T16:37:52.642Z,26.33
2023-01-29T16:40:32.659Z,25.48
2023-01-29T16:43:18.801Z,25.00
2023-01-29T16:46:05.016Z,23.90
2023-01-29T16:48:33.958Z,24.70
2023-01-29T16:51:06.570Z,24.30
2023-01-29T16:53:36.552Z,23.98
2023-01-29T16:56:06.056Z,24.48
2023-01-29T16:58:34.062Z,24.50
2023-01-29T17:01:06.721Z,24.48
2023-01-29T17:03:35.626Z,23.75
2023-01-29T17:06:12.030Z,23.67
2023-01-29T17:08:41.810Z,23.75
2023-01-29T17:11:09.680Z,24.85
2023-01-29T17:13:42.820Z,23.65
2023-01-29T17:16:31.347Z,24.73
2023-01-29T17:18:59.664Z,23.40
2023-01-29T17:21:27.396Z,25.27
2023-01-29T17:23:55.225Z,25.27
2023-01-29T17:26:24.925Z,24.10
2023-01-29T17:28:53.188Z,25.35
2023-01-29T17:31:22.975Z,26.83
2023-01-29T17:33:51.386Z,25.90
2023-01-29T17:36:20.357Z,25.42
2023-01-29T17:38:48.037Z,26.38
2023-01-29T17:41:26.708Z,24.95
2023-01-29T17:43:54.455Z,25.90
2023-01-29T17:46:22.871Z,24.70
2023-01-29T17:48:52.439Z,24.85
2023-01-29T17:51:20.263Z,24.83
2023-01-29T17:53:47.855Z,23.83
2023-01-29T17:56:17.377Z,23.08
2023-01-29T17:58:45.280Z,24.40
2023-01-29T18:01:12.817Z,22.98
2023-01-29T18:03:40.744Z,23.85
2023-01-29T18:06:09.532Z,23.15
2023-01-29T18:08:39.695Z,22.98
2023-01-29T18:11:07.677Z,23.10
2023-01-29T18:13:36.304Z,22.90
2023-01-29T18:16:04.011Z,23.77
2023-01-29T18:18:31.764Z,22.67
2023-01-29T18:20:59.885Z,22.83
2023-01-29T18:23:29.497Z,22.42
2023-01-29T18:25:58.735Z,23.33
2023-01-29T18:28:26.718Z,23.27
2023-01-29T18:30:54.614Z,22.65
2023-01-29T18:33:25.962Z,22.73
2023-01-29T18:35:55.403Z,22.40
2023-01-29T18:38:26.119Z,22.58
2023-01-29T18:40:56.410Z,22.20
2023-01-29T18:43:26.179Z,21.58
2023-01-29T18:45:58.185Z,21.90
2023-01-29T18:48:26.338Z,22.70
2023-01-29T18:50:54.330Z,23.05
2023-01-29T18:53:22.860Z,21.60
2023-01-29T18:56:04.832Z,22.90
2023-01-29T18:58:36.310Z,21.92
2023-01-29T19:01:11.995Z,21.88
2023-01-29T19:03:40.954Z,23.33
2023-01-29T19:06:09.576Z,23.08
2023-01-29T19:08:37.365Z,22.70
2023-01-29T19:11:08.294Z,21.85
2023-01-29T19:13:38.112Z,22.73
2023-01-29T19:16:13.857Z,23.48
2023-01-29T19:18:41.944Z,22.60
2023-01-29T19:21:11.117Z,22.50
2023-01-29T19:23:39.447Z,23.45
2023-01-29T19:26:07.479Z,23.02
2023-01-29T19:28:35.391Z,23.48
2023-01-29T19:31:03.440Z,23.73
2023-01-29T19:33:31.882Z,25.15
2023-01-29T19:35:59.928Z,23.17
2023-01-29T19:38:27.657Z,23.23
2023-01-29T19:40:55.624Z,23.50
2023-01-29T19:43:30.626Z,24.20
2023-01-29T19:45:59.335Z,24.48
2023-01-29T19:48:27.147Z,24.33
2023-01-29T19:50:55.721Z,23.98
2023-01-29T19:53:24.311Z,24.08
2023-01-29T19:56:03.488Z,24.60
2023-01-29T19:58:33.010Z,24.38
2023-01-29T20:01:05.552Z,24.65
2023-01-29T20:03:34.583Z,25.95
2023-01-29T20:06:04.184Z,25.10
2023-01-29T20:08:32.573Z,26.00
2023-01-29T20:11:00.537Z,24.10
2023-01-29T20:13:28.754Z,26.13
2023-01-29T20:15:56.628Z,26.17
2023-01-29T20:18:24.506Z,27.10
2023-01-29T20:20:53.563Z,26.63
2023-01-29T20:23:37.277Z,26.90
2023-01-29T20:26:07.272Z,26.15
2023-01-29T20:28:36.815Z,27.15
2023-01-29T20:31:05.630Z,24.75
2023-01-29T20:33:34.870Z,26.63
2023-01-29T20:36:04.445Z,27.13
2023-01-29T20:38:32.389Z,26.87
2023-01-29T20:41:04.262Z,26.58
2023-01-29T20:43:32.233Z,26.02
2023-01-29T20:46:00.471Z,25.90
2023-01-29T20:48:28.497Z,26.23
2023-01-29T20:50:56.156Z,26.52
2023-01-29T20:53:23.874Z,26.95
2023-01-29T20:55:53.388Z,26.77
2023-01-29T20:58:22.595Z,26.27
2023-01-29T21:00:50.757Z,27.55
2023-01-29T21:03:18.460Z,27.67
2023-01-29T21:05:46.696Z,26.70
2023-01-29T21:08:14.325Z,26.38
2023-01-29T21:10:43.440Z,26.60
2023-01-29T21:13:11.740Z,28.35
2023-01-29T21:15:39.347Z,27.98
2023-01-29T21:18:07.649Z,28.20
2023-01-29T21:20:37.072Z,28.27
2023-01-29T21:23:07.033Z,28.00
2023-01-29T21:25:35.179Z,27.85
2023-01-29T21:28:10.221Z,28.13
2023-01-29T21:30:38.117Z,29.88
2023-01-29T21:33:06.011Z,27.60
2023-01-29T21:35:33.803Z,28.95
2023-01-29T21:38:01.381Z,28.65
2023-01-29T21:40:30.563Z,28.27
2023-01-29T21:43:13.321Z,28.88
2023-01-29T21:45:41.720Z,29.98
2023-01-29T21:48:12.626Z,28.73
2023-01-29T21:50:40.264Z,28.05
2023-01-29T21:53:08.009Z,30.05
2023-01-29T21:55:35.619Z,30.95
2023-01-29T21:58:04.436Z,29.45
2023-01-29T22:00:32.409Z,28.98
2023-01-29T22:03:00.034Z,30.83
2023-01-29T22:05:29.348Z,29.45
2023-01-29T22:07:57.512Z,29.85
2023-01-29T22:10:25.081Z,30.65
2023-01-29T22:12:54.067Z,30.55
2023-01-29T22:15:23.932Z,29.95
2023-01-29T22:17:52.834Z,30.17
2023-01-29T22:20:25.572Z,30.55
2023-01-29T22:22:54.224Z,29.85
2023-01-29T22:25:22.913Z,32.08
2023-01-29T22:27:53.621Z,31.48
2023-01-29T22:30:23.491Z,32.15
2023-01-29T22:32:52.410Z,31.05
2023-01-29T22:35:20.255Z,29.92
2023-01-29T22:37:47.818Z,31.02
2023-01-29T22:40:16.185Z,31.73
2023-01-29T22:42:44.098Z,30.70
2023-01-29T22:45:11.796Z,32.42
2023-01-29T22:47:39.328Z,31.85
2023-01-29T22:50:07.516Z,31.67
2023-01-29T22:52:42.836Z,32.25
2023-01-29T22:55:11.234Z,32.83
2023-01-29T22:57:38.894Z,31.58
2023-01-29T23:00:08.501Z,33.60
2023-01-29T23:02:36.272Z,34.28
2023-01-29T23:05:04.460Z,34.10
2023-01-29T23:07:32.433Z,35.03
2023-01-29T23:09:59.982Z,33.95
2023-01-29T23:12:27.577Z,35.22
2023-01-29T23:14:55.211Z,34.20
2023-01-29T23:17:23.466Z,33.53
2023-01-29T23:19:51.423Z,34.55
2023-01-29T23:22:18.910Z,35.15
2023-01-29T23:24:47.072Z,35.33
2023-01-29T23:27:14.538Z,35.47
2023-01-29T23:29:45.783Z,35.78
2023-01-29T23:32:15.969Z,36.95
2023-01-29T23:34:43.716Z,34.60
2023-01-29T23:37:11.142Z,34.65
2023-01-29T23:39:39.126Z,35.95
2023-01-29T23:42:06.773Z,37.25
2023-01-29T23:44:35.610Z,35.63
2023-01-29T23:47:03.474Z,36.17
2023-01-29T23:49:31.604Z,35.92
2023-01-29T23:51:59.253Z,35.72
2023-01-29T23:54:29.794Z,36.72
2023-01-29T23:59:28.500Z,34.92
